Time;durP1;ratioP1;P1;durP2;ratioP2;P2;SDS_P1;SDS_P2;PMS_P1;PMS_P2;Temp;Humidity;BMP_temperature;BMP_pressure;BME280_temperature;BME280_humidity;BME280_pressure;Samples;Min_cycle;Max_cycle;Signal;HPM_P1;HPM_P2
2021/04/30 00:00:17;;;;;;;;;;;19.90;58.20;;;;;;5034401;28;19920;-77
2021/04/30 00:02:43;;;;;;;;;;;19.90;58.20;;;;;;5052524;28;19913;-76
2021/04/30 00:05:08;;;;;;;;;;;19.90;58.10;;;;;;5051775;28;19919;-77
2021/04/30 00:07:34;;;;;;;;;;;19.90;58.10;;;;;;5026552;28;19927;-77
2021/04/30 00:10:00;;;;;;;;;;;19.90;58.10;;;;;;5050643;28;19913;-77
2021/04/30 00:12:25;;;;;;;;;;;19.90;58.10;;;;;;5026196;28;19921;-77
2021/04/30 00:14:51;;;;;;;;;;;20.00;58.10;;;;;;5051670;28;19923;-77
2021/04/30 00:17:16;;;;;;;;;;;19.90;58.20;;;;;;5050626;28;20287;-78
2021/04/30 00:19:42;;;;;;;;;;;19.90;58.10;;;;;;5049125;28;19963;-77
2021/04/30 00:22:08;;;;;;;;;;;19.90;58.10;;;;;;5050419;28;19920;-77
2021/04/30 00:24:33;;;;;;;;;;;19.90;58.20;;;;;;5046992;28;19913;-78
2021/04/30 00:26:59;;;;;;;;;;;19.90;58.20;;;;;;5030421;28;20239;-77
2021/04/30 00:29:24;;;;;;;;;;;19.90;58.20;;;;;;5048539;28;19920;-77
2021/04/30 00:31:50;;;;;;;;;;;19.90;58.20;;;;;;5050774;28;19919;-78
2021/04/30 00:34:16;;;;;;;;;;;19.90;58.10;;;;;;5034384;28;20298;-77
2021/04/30 00:36:41;;;;;;;;;;;19.90;58.20;;;;;;5029375;28;20039;-77
2021/04/30 00:39:07;;;;;;;;;;;19.90;58.20;;;;;;5048035;28;20012;-77
2021/04/30 00:41:32;;;;;;;;;;;19.90;58.20;;;;;;5038826;28;20281;-77
2021/04/30 00:44:02;;;;;;;;;;;19.90;58.20;;;;;;5038340;28;20381;-77
2021/04/30 00:46:27;;;;;;;;;;;19.90;58.20;;;;;;5051361;28;19921;-77
2021/04/30 00:48:53;;;;;;;;;;;19.90;58.20;;;;;;5036340;28;20348;-77
2021/04/30 00:51:18;;;;;;;;;;;19.90;58.20;;;;;;5036610;28;19959;-77
2021/04/30 00:53:44;;;;;;;;;;;19.90;58.20;;;;;;5030227;28;19987;-77
2021/04/30 00:56:09;;;;;;;;;;;19.80;58.20;;;;;;5037719;28;19923;-76
2021/04/30 00:58:35;;;;;;;;;;;19.90;58.20;;;;;;5055666;28;20023;-77
2021/04/30 01:01:01;;;;;;;;;;;19.90;58.20;;;;;;5037554;28;19979;-77
2021/04/30 01:03:26;;;;;;;;;;;19.90;58.20;;;;;;5055154;28;19917;-77
2021/04/30 01:05:52;;;;;;;;;;;19.90;58.20;;;;;;5033546;28;19920;-76
2021/04/30 01:08:17;;;;;;;;;;;19.90;58.20;;;;;;5042210;28;19959;-77
2021/04/30 01:10:43;;;;;;;;;;;19.90;58.20;;;;;;5055530;28;19913;-77
2021/04/30 01:13:11;;;;;;;;;;;19.90;58.20;;;;;;5040106;28;20358;-77
2021/04/30 01:15:37;;;;;;;;;;;19.90;58.20;;;;;;5054069;28;19924;-77
2021/04/30 01:18:02;;;;;;;;;;;19.90;58.20;;;;;;5029877;28;20428;-77
2021/04/30 01:20:28;;;;;;;;;;;19.90;58.20;;;;;;5052775;28;19917;-77
2021/04/30 01:22:54;;;;;;;;;;;19.90;58.20;;;;;;5036804;28;20362;-77
2021/04/30 01:25:26;;;;;;;;;;;19.90;58.20;;;;;;5054093;28;19939;-77
2021/04/30 01:27:52;;;;;;;;;;;19.80;58.20;;;;;;5052797;28;19921;-76
2021/04/30 01:30:20;;;;;;;;;;;19.90;58.20;;;;;;5052448;28;19913;-77
2021/04/30 01:32:45;;;;;;;;;;;19.90;58.20;;;;;;5052607;28;19991;-77
2021/04/30 01:35:16;;;;;;;;;;;19.90;58.20;;;;;;5054796;28;20404;-77
2021/04/30 01:37:41;;;;;;;;;;;19.80;58.20;;;;;;5050347;28;20396;-77
2021/04/30 01:40:14;;;;;;;;;;;19.90;58.30;;;;;;5034600;28;20054;-77
2021/04/30 01:42:58;;;;;;;;;;;19.90;58.30;;;;;;5054293;28;20340;-77
2021/04/30 01:45:28;;;;;;;;;;;19.90;58.30;;;;;;5053894;28;19928;-76
2021/04/30 01:47:54;;;;;;;;;;;19.90;58.30;;;;;;5053989;28;20290;-77
2021/04/30 01:50:19;;;;;;;;;;;19.80;58.30;;;;;;5053645;28;19927;-77
2021/04/30 01:52:45;;;;;;;;;;;19.90;58.20;;;;;;5036640;28;20459;-77
2021/04/30 01:55:11;;;;;;;;;;;19.80;58.30;;;;;;5053645;28;19924;-77
2021/04/30 01:57:36;;;;;;;;;;;19.90;58.20;;;;;;5057184;28;20516;-76
2021/04/30 02:00:05;;;;;;;;;;;19.90;58.20;;;;;;5034927;28;19913;-78
2021/04/30 02:02:46;;;;;;;;;;;19.80;58.20;;;;;;5054370;28;19913;-76
2021/04/30 02:05:12;;;;;;;;;;;19.90;58.30;;;;;;5053700;28;19913;-78
2021/04/30 02:07:38;;;;;;;;;;;19.90;58.30;;;;;;5053681;28;19929;-77
2021/04/30 02:10:05;;;;;;;;;;;19.80;58.30;;;;;;5046971;28;19913;-80
2021/04/30 02:12:31;;;;;;;;;;;19.80;58.30;;;;;;5054504;28;19999;-77
2021/04/30 02:14:56;;;;;;;;;;;19.90;58.30;;;;;;5053450;28;20008;-77
2021/04/30 02:17:22;;;;;;;;;;;19.80;58.30;;;;;;5037030;28;19913;-77
2021/04/30 02:19:47;;;;;;;;;;;19.90;58.30;;;;;;5053115;28;19913;-77
2021/04/30 02:22:13;;;;;;;;;;;19.80;58.30;;;;;;5036167;28;19920;-77
2021/04/30 02:24:38;;;;;;;;;;;19.90;58.30;;;;;;5039135;28;20362;-77
2021/04/30 02:27:04;;;;;;;;;;;19.80;58.30;;;;;;5054179;28;19952;-77
2021/04/30 02:29:31;;;;;;;;;;;19.80;58.30;;;;;;5053089;28;19912;-77
2021/04/30 02:31:57;;;;;;;;;;;19.80;58.30;;;;;;5053071;28;19925;-77
2021/04/30 02:34:22;;;;;;;;;;;19.80;58.30;;;;;;5047902;28;20297;-77
2021/04/30 02:36:48;;;;;;;;;;;19.80;58.30;;;;;;5032691;28;20269;-77
2021/04/30 02:39:13;;;;;;;;;;;19.90;58.30;;;;;;5035968;28;20381;-77
2021/04/30 02:41:39;;;;;;;;;;;19.80;58.30;;;;;;5053852;28;19924;-77
2021/04/30 02:44:05;;;;;;;;;;;19.80;58.30;;;;;;5053248;28;19966;-78
2021/04/30 02:46:30;;;;;;;;;;;19.80;58.30;;;;;;5050810;28;19913;-77
2021/04/30 02:49:02;;;;;;;;;;;19.80;58.30;;;;;;5033400;28;19948;-78
2021/04/30 02:51:27;;;;;;;;;;;19.80;58.30;;;;;;5033701;28;20373;-77
2021/04/30 02:53:53;;;;;;;;;;;19.80;58.30;;;;;;5051209;28;19931;-77
2021/04/30 02:56:23;;;;;;;;;;;19.80;58.30;;;;;;5054344;28;19917;-77
2021/04/30 02:58:53;;;;;;;;;;;19.80;58.30;;;;;;5024607;28;19913;-77
2021/04/30 03:01:19;;;;;;;;;;;19.80;58.30;;;;;;5048335;28;20003;-77
2021/04/30 03:03:44;;;;;;;;;;;19.80;58.30;;;;;;5051890;28;20016;-77
2021/04/30 03:06:10;;;;;;;;;;;19.80;58.30;;;;;;5035613;28;19913;-77
2021/04/30 03:08:35;;;;;;;;;;;19.80;58.30;;;;;;5052041;28;19924;-77
2021/04/30 03:11:01;;;;;;;;;;;19.80;58.30;;;;;;5053201;28;20388;-78
2021/04/30 03:13:26;;;;;;;;;;;19.80;58.30;;;;;;5033596;28;19921;-77
2021/04/30 03:15:52;;;;;;;;;;;19.80;58.30;;;;;;5053285;28;19925;-75
2021/04/30 03:18:17;;;;;;;;;;;19.80;58.30;;;;;;5034806;28;19935;-74
2021/04/30 03:20:43;;;;;;;;;;;19.80;58.30;;;;;;5034391;28;19913;-74
2021/04/30 03:23:08;;;;;;;;;;;19.80;58.30;;;;;;5029557;28;19919;-75
2021/04/30 03:25:34;;;;;;;;;;;19.80;58.30;;;;;;5050408;28;19971;-75
2021/04/30 03:27:59;;;;;;;;;;;19.80;58.30;;;;;;5052335;28;20379;-75
2021/04/30 03:30:25;;;;;;;;;;;19.80;58.30;;;;;;5033716;28;19917;-74
2021/04/30 03:32:50;;;;;;;;;;;19.80;58.40;;;;;;5052571;28;20282;-74
2021/04/30 03:35:18;;;;;;;;;;;19.80;58.30;;;;;;5053429;28;20297;-74
2021/04/30 03:37:44;;;;;;;;;;;19.80;58.30;;;;;;5031385;28;19984;-74
2021/04/30 03:40:10;;;;;;;;;;;19.80;58.30;;;;;;5033798;28;19917;-74
2021/04/30 03:42:35;;;;;;;;;;;19.80;58.30;;;;;;5052975;28;19920;-74
2021/04/30 03:45:01;;;;;;;;;;;19.80;58.40;;;;;;5052033;28;19974;-74
2021/04/30 03:47:26;;;;;;;;;;;19.80;58.40;;;;;;5036420;28;19966;-75
2021/04/30 03:49:52;;;;;;;;;;;19.80;58.40;;;;;;5034467;28;19913;-74
2021/04/30 03:52:17;;;;;;;;;;;19.80;58.30;;;;;;5036032;28;20286;-74
2021/04/30 03:54:43;;;;;;;;;;;19.80;58.40;;;;;;5034276;28;19996;-74
2021/04/30 03:57:09;;;;;;;;;;;19.80;58.40;;;;;;5051902;28;20380;-74
2021/04/30 03:59:34;;;;;;;;;;;19.80;58.30;;;;;;5052258;28;20352;-74
2021/04/30 04:02:00;;;;;;;;;;;19.80;58.40;;;;;;5016791;28;19925;-74
2021/04/30 04:04:25;;;;;;;;;;;19.80;58.30;;;;;;5054821;28;19916;-74
2021/04/30 04:06:51;;;;;;;;;;;19.80;58.30;;;;;;5044189;28;19968;-75
2021/04/30 04:09:16;;;;;;;;;;;19.80;58.30;;;;;;5033969;28;20392;-75
2021/04/30 04:11:43;;;;;;;;;;;19.80;58.30;;;;;;5052532;28;19917;-74
2021/04/30 04:14:08;;;;;;;;;;;19.80;58.40;;;;;;5033948;28;20274;-77
2021/04/30 04:16:34;;;;;;;;;;;19.80;58.30;;;;;;5049523;28;19917;-77
2021/04/30 04:19:00;;;;;;;;;;;19.80;58.40;;;;;;5043749;28;19939;-75
2021/04/30 04:21:25;;;;;;;;;;;19.80;58.30;;;;;;5031271;28;19917;-74
2021/04/30 04:23:51;;;;;;;;;;;19.80;58.30;;;;;;5039082;28;19913;-75
2021/04/30 04:26:17;;;;;;;;;;;19.80;58.30;;;;;;5033514;28;19920;-76
2021/04/30 04:28:43;;;;;;;;;;;19.80;58.30;;;;;;5051749;28;19991;-75
2021/04/30 04:31:08;;;;;;;;;;;19.80;58.30;;;;;;5046324;28;19921;-76
2021/04/30 04:33:33;;;;;;;;;;;19.90;58.30;;;;;;5051172;28;19917;-75
2021/04/30 04:35:59;;;;;;;;;;;19.80;58.30;;;;;;5033707;28;19931;-75
2021/04/30 04:38:27;;;;;;;;;;;19.80;58.30;;;;;;5047975;28;19929;-75
2021/04/30 04:40:53;;;;;;;;;;;19.80;58.30;;;;;;5028275;28;19913;-75
2021/04/30 04:43:18;;;;;;;;;;;19.80;58.20;;;;;;5030551;28;19917;-75
2021/04/30 04:45:44;;;;;;;;;;;19.80;58.20;;;;;;5050522;28;20317;-77
2021/04/30 04:48:09;;;;;;;;;;;19.80;58.20;;;;;;5029998;28;20015;-77
2021/04/30 04:50:35;;;;;;;;;;;19.90;58.20;;;;;;5051611;28;19921;-77
2021/04/30 04:53:00;;;;;;;;;;;19.90;58.20;;;;;;5031238;28;19917;-77
2021/04/30 04:55:26;;;;;;;;;;;19.90;58.20;;;;;;5050152;28;19921;-77
2021/04/30 04:57:51;;;;;;;;;;;19.90;58.20;;;;;;5051971;28;19912;-77
2021/04/30 05:00:17;;;;;;;;;;;19.80;58.20;;;;;;5032333;28;19920;-77
2021/04/30 05:02:42;;;;;;;;;;;19.90;58.20;;;;;;5050849;28;20361;-76
2021/04/30 05:05:08;;;;;;;;;;;19.90;58.20;;;;;;5033594;28;19916;-77
2021/04/30 05:07:34;;;;;;;;;;;19.90;58.20;;;;;;5045603;28;20003;-77
2021/04/30 05:10:00;;;;;;;;;;;19.90;58.20;;;;;;5051263;28;19913;-77
2021/04/30 05:12:25;;;;;;;;;;;19.90;58.20;;;;;;5032738;28;20032;-75
2021/04/30 05:14:51;;;;;;;;;;;19.90;58.20;;;;;;5051118;28;19982;-75
2021/04/30 05:17:17;;;;;;;;;;;19.90;58.20;;;;;;5051439;28;19936;-75
2021/04/30 05:19:42;;;;;;;;;;;19.80;58.20;;;;;;5022326;28;19959;-75
2021/04/30 05:22:11;;;;;;;;;;;19.90;58.20;;;;;;5033259;28;20289;-75
2021/04/30 05:24:36;;;;;;;;;;;19.90;58.20;;;;;;5028015;28;19916;-74
2021/04/30 05:27:06;;;;;;;;;;;19.80;58.20;;;;;;5034255;28;20290;-75
2021/04/30 05:29:33;;;;;;;;;;;19.80;58.20;;;;;;5033095;28;19913;-75
2021/04/30 05:31:58;;;;;;;;;;;19.90;58.20;;;;;;5034897;28;20334;-75
2021/04/30 05:34:24;;;;;;;;;;;19.90;58.20;;;;;;5032490;28;19967;-75
2021/04/30 05:36:49;;;;;;;;;;;19.90;58.20;;;;;;5054060;28;19939;-76
2021/04/30 05:39:15;;;;;;;;;;;19.90;58.20;;;;;;5055232;28;20377;-75
2021/04/30 05:41:40;;;;;;;;;;;19.80;58.20;;;;;;5036835;28;19936;-75
2021/04/30 05:44:06;;;;;;;;;;;19.90;58.10;;;;;;5039822;28;19965;-74
2021/04/30 05:46:31;;;;;;;;;;;19.80;58.10;;;;;;5037543;28;19982;-75
2021/04/30 05:48:57;;;;;;;;;;;19.90;58.10;;;;;;5043552;28;20416;-75
2021/04/30 05:51:22;;;;;;;;;;;19.90;58.10;;;;;;5036815;28;19912;-75
2021/04/30 05:53:48;;;;;;;;;;;19.90;58.10;;;;;;5053451;28;19923;-75
2021/04/30 05:56:13;;;;;;;;;;;20.00;58.00;;;;;;5052727;28;20267;-75
2021/04/30 05:58:39;;;;;;;;;;;20.00;58.00;;;;;;5049220;28;19967;-75
2021/04/30 06:01:04;;;;;;;;;;;20.00;57.90;;;;;;5037003;28;19912;-75
2021/04/30 06:03:30;;;;;;;;;;;20.00;57.80;;;;;;5036721;28;20000;-75
2021/04/30 06:05:55;;;;;;;;;;;20.00;57.80;;;;;;5060984;28;19952;-76
2021/04/30 06:08:21;;;;;;;;;;;20.00;57.80;;;;;;5032471;28;19974;-75
2021/04/30 06:10:46;;;;;;;;;;;20.00;57.80;;;;;;5040602;28;20452;-75
2021/04/30 06:13:12;;;;;;;;;;;20.00;57.80;;;;;;5053805;28;20278;-76
2021/04/30 06:15:37;;;;;;;;;;;20.00;57.90;;;;;;5054576;28;19916;-75
2021/04/30 06:18:03;;;;;;;;;;;19.90;57.90;;;;;;5035384;28;19919;-75
2021/04/30 06:20:28;;;;;;;;;;;20.00;57.90;;;;;;5036307;28;19935;-75
2021/04/30 06:22:54;;;;;;;;;;;20.00;57.90;;;;;;5053081;28;19920;-75
2021/04/30 06:25:20;;;;;;;;;;;20.00;57.90;;;;;;5054314;28;19972;-76
2021/04/30 06:27:45;;;;;;;;;;;20.00;57.90;;;;;;5051511;28;20267;-74
2021/04/30 06:30:11;;;;;;;;;;;19.90;58.00;;;;;;5034126;28;19956;-75
2021/04/30 06:32:38;;;;;;;;;;;20.00;57.90;;;;;;5048271;28;19940;-75
2021/04/30 06:35:06;;;;;;;;;;;20.00;57.90;;;;;;5034506;28;19917;-75
2021/04/30 06:37:31;;;;;;;;;;;19.90;57.90;;;;;;5046404;28;19913;-76
2021/04/30 06:39:57;;;;;;;;;;;19.90;57.90;;;;;;5053336;28;20169;-79
2021/04/30 06:42:22;;;;;;;;;;;19.90;57.90;;;;;;5054435;28;19920;-77
2021/04/30 06:44:48;;;;;;;;;;;20.00;57.90;;;;;;5052727;28;20320;-78
2021/04/30 06:47:13;;;;;;;;;;;20.00;57.90;;;;;;5052701;28;19913;-78
2021/04/30 06:49:39;;;;;;;;;;;20.00;57.90;;;;;;5030857;28;19917;-79
2021/04/30 06:52:05;;;;;;;;;;;20.00;57.90;;;;;;5053906;28;19959;-78
2021/04/30 06:54:30;;;;;;;;;;;20.00;57.80;;;;;;5052979;28;20389;-80
2021/04/30 06:56:56;;;;;;;;;;;20.00;57.80;;;;;;5032309;28;19998;-78
2021/04/30 06:59:21;;;;;;;;;;;20.00;57.70;;;;;;5053542;28;20446;-78
2021/04/30 07:01:47;;;;;;;;;;;20.10;57.60;;;;;;5048784;28;19913;-78
2021/04/30 07:04:12;;;;;;;;;;;20.10;57.50;;;;;;5036559;28;20015;-79
2021/04/30 07:06:38;;;;;;;;;;;20.10;57.40;;;;;;5053859;28;20427;-79
2021/04/30 07:09:04;;;;;;;;;;;20.10;57.30;;;;;;5025238;28;20259;-78
2021/04/30 07:11:30;;;;;;;;;;;20.20;57.30;;;;;;5044093;28;19959;-82
2021/04/30 07:13:56;;;;;;;;;;;20.20;57.30;;;;;;5041726;28;19929;-79
2021/04/30 07:16:22;;;;;;;;;;;20.20;57.20;;;;;;5043516;28;19920;-79
2021/04/30 07:18:47;;;;;;;;;;;20.20;57.20;;;;;;5053022;28;21478;-78
2021/04/30 07:21:13;;;;;;;;;;;20.20;57.10;;;;;;5032586;28;19913;-78
2021/04/30 07:23:39;;;;;;;;;;;20.20;57.10;;;;;;5031336;28;19913;-82
2021/04/30 07:26:04;;;;;;;;;;;20.30;57.10;;;;;;5051866;28;19912;-78
2021/04/30 07:28:30;;;;;;;;;;;20.30;57.00;;;;;;5052554;28;19936;-78
2021/04/30 07:30:56;;;;;;;;;;;20.30;57.00;;;;;;5032086;28;20372;-79
2021/04/30 07:33:21;;;;;;;;;;;20.30;56.80;;;;;;5051715;28;19917;-78
2021/04/30 07:35:47;;;;;;;;;;;20.30;56.70;;;;;;5052795;28;19931;-79
2021/04/30 07:38:13;;;;;;;;;;;20.30;56.70;;;;;;5052342;28;20383;-78
2021/04/30 07:40:40;;;;;;;;;;;20.30;56.70;;;;;;5030419;28;19959;-76
2021/04/30 07:43:06;;;;;;;;;;;20.30;56.70;;;;;;5030681;28;20006;-75
2021/04/30 07:45:32;;;;;;;;;;;20.30;56.80;;;;;;5050011;28;19924;-78
2021/04/30 07:47:57;;;;;;;;;;;20.30;56.80;;;;;;5053033;28;19913;-77
2021/04/30 07:50:23;;;;;;;;;;;20.30;56.80;;;;;;5052255;28;19960;-77
2021/04/30 07:52:48;;;;;;;;;;;20.30;56.70;;;;;;5050163;28;21353;-76
2021/04/30 07:55:14;;;;;;;;;;;20.40;56.70;;;;;;5052087;28;19971;-79
2021/04/30 07:57:39;;;;;;;;;;;20.40;56.60;;;;;;5051547;28;19917;-77
2021/04/30 08:00:06;;;;;;;;;;;20.30;56.70;;;;;;5035894;28;19916;-77
2021/04/30 08:02:31;;;;;;;;;;;20.30;56.70;;;;;;5039375;28;19912;-77
2021/04/30 08:04:57;;;;;;;;;;;20.30;56.80;;;;;;5052385;28;19920;-77
2021/04/30 08:07:22;;;;;;;;;;;20.30;56.80;;;;;;5049070;28;19932;-77
2021/04/30 08:09:48;;;;;;;;;;;20.30;56.90;;;;;;5028260;28;19965;-76
2021/04/30 08:12:16;;;;;;;;;;;20.30;56.90;;;;;;5045752;28;19921;-77
2021/04/30 08:14:42;;;;;;;;;;;20.30;56.90;;;;;;5045411;28;20325;-77
2021/04/30 08:17:07;;;;;;;;;;;20.30;56.90;;;;;;5028838;28;19984;-77
2021/04/30 08:19:33;;;;;;;;;;;20.30;56.80;;;;;;5051959;28;20302;-82
2021/04/30 08:21:58;;;;;;;;;;;20.30;56.70;;;;;;5051661;28;19913;-77
2021/04/30 08:24:24;;;;;;;;;;;20.30;56.80;;;;;;5040139;28;19913;-76
2021/04/30 08:26:50;;;;;;;;;;;20.30;56.70;;;;;;5052664;28;19913;-77
2021/04/30 08:29:16;;;;;;;;;;;20.30;56.70;;;;;;5033441;28;19924;-78
2021/04/30 08:31:42;;;;;;;;;;;20.30;56.70;;;;;;5053542;28;19921;-78
2021/04/30 08:34:08;;;;;;;;;;;20.30;56.70;;;;;;5033322;28;19921;-77
2021/04/30 08:36:33;;;;;;;;;;;20.40;56.50;;;;;;5035175;28;19923;-77
2021/04/30 08:38:59;;;;;;;;;;;20.40;56.40;;;;;;5050670;28;19920;-77
2021/04/30 08:41:26;;;;;;;;;;;20.40;56.40;;;;;;5051199;28;19955;-77
2021/04/30 08:43:52;;;;;;;;;;;20.50;56.40;;;;;;5038904;28;19913;-77
2021/04/30 08:46:17;;;;;;;;;;;20.50;56.40;;;;;;5051939;28;20058;-77
2021/04/30 08:48:43;;;;;;;;;;;20.50;56.30;;;;;;5053621;28;20007;-76
2021/04/30 08:51:09;;;;;;;;;;;20.50;56.30;;;;;;5033475;28;19920;-76
2021/04/30 08:53:34;;;;;;;;;;;20.50;56.30;;;;;;5052165;28;19921;-77
2021/04/30 08:56:03;;;;;;;;;;;20.40;56.40;;;;;;5034650;28;20353;-77
2021/04/30 08:58:29;;;;;;;;;;;20.50;56.30;;;;;;5034091;28;20274;-77
2021/04/30 09:00:56;;;;;;;;;;;20.50;56.20;;;;;;5053975;28;19912;-78
2021/04/30 09:03:21;;;;;;;;;;;20.50;56.20;;;;;;5031306;28;19920;-77
2021/04/30 09:05:48;;;;;;;;;;;20.60;56.20;;;;;;5047961;28;19913;-77
2021/04/30 09:08:14;;;;;;;;;;;20.50;56.20;;;;;;5051081;28;19921;-78
2021/04/30 09:10:42;;;;;;;;;;;20.50;56.20;;;;;;5055984;28;20009;-77
2021/04/30 09:13:09;;;;;;;;;;;20.60;56.10;;;;;;5037918;28;19936;-77
2021/04/30 09:15:35;;;;;;;;;;;20.60;56.10;;;;;;5044833;28;20316;-78
2021/04/30 09:18:21;;;;;;;;;;;20.60;56.10;;;;;;5049803;28;19921;-78
2021/04/30 09:20:48;;;;;;;;;;;20.60;56.00;;;;;;5051326;28;19917;-77
2021/04/30 09:23:52;;;;;;;;;;;20.60;56.00;;;;;;5052376;28;19920;-77
2021/04/30 09:26:20;;;;;;;;;;;20.60;55.90;;;;;;5009643;28;19913;-77
2021/04/30 09:29:00;;;;;;;;;;;20.60;55.90;;;;;;5007763;28;20290;-77
2021/04/30 09:31:32;;;;;;;;;;;20.60;55.90;;;;;;5002243;28;19921;-76
2021/04/30 09:34:13;;;;;;;;;;;20.60;56.00;;;;;;5010086;28;19924;-76
2021/04/30 09:36:57;;;;;;;;;;;20.50;56.00;;;;;;5002027;28;19960;-77
2021/04/30 09:39:23;;;;;;;;;;;20.60;56.00;;;;;;4992524;28;19921;-78
2021/04/30 09:42:04;;;;;;;;;;;20.60;56.00;;;;;;5003893;28;20009;-78
2021/04/30 09:44:43;;;;;;;;;;;20.60;55.90;;;;;;5005014;28;19913;-78
2021/04/30 09:47:25;;;;;;;;;;;20.60;56.00;;;;;;4992972;28;19913;-82
2021/04/30 09:49:52;;;;;;;;;;;20.60;56.00;;;;;;5005394;28;19936;-79
2021/04/30 09:52:18;;;;;;;;;;;20.60;56.00;;;;;;5009211;28;20080;-80
2021/04/30 09:54:44;;;;;;;;;;;20.50;56.10;;;;;;5013922;28;20363;-78
2021/04/30 09:57:23;;;;;;;;;;;20.50;56.20;;;;;;5026281;28;19913;-79
2021/04/30 09:59:51;;;;;;;;;;;20.50;56.30;;;;;;5046825;28;20322;-79
2021/04/30 10:02:18;;;;;;;;;;;20.50;56.20;;;;;;5052908;28;19913;-79
2021/04/30 10:04:45;;;;;;;;;;;20.50;56.20;;;;;;5036858;28;20289;-77
2021/04/30 10:07:12;;;;;;;;;;;20.50;56.10;;;;;;5025799;28;20013;-78
2021/04/30 10:09:38;;;;;;;;;;;20.50;56.20;;;;;;5017197;28;19913;-79
2021/04/30 10:12:20;;;;;;;;;;;20.50;56.20;;;;;;5023912;28;19983;-78
2021/04/30 10:14:46;;;;;;;;;;;20.50;56.20;;;;;;5027349;28;19917;-79
2021/04/30 10:17:12;;;;;;;;;;;20.50;56.10;;;;;;5029079;28;19936;-79
2021/04/30 10:19:37;;;;;;;;;;;20.50;56.10;;;;;;5028765;28;20005;-78
2021/04/30 10:22:03;;;;;;;;;;;20.50;56.20;;;;;;5027987;28;20021;-78
2021/04/30 10:24:31;;;;;;;;;;;20.50;56.30;;;;;;5021279;28;19929;-78
2021/04/30 10:26:57;;;;;;;;;;;20.50;56.30;;;;;;5014347;28;20370;-79
2021/04/30 10:29:25;;;;;;;;;;;20.50;56.30;;;;;;5019164;28;19948;-78
2021/04/30 10:31:52;;;;;;;;;;;20.50;56.30;;;;;;5012045;28;19975;-78
2021/04/30 10:34:23;;;;;;;;;;;20.50;56.30;;;;;;5015261;28;19921;-79
2021/04/30 10:36:53;;;;;;;;;;;20.50;56.20;;;;;;5030307;28;19917;-79
2021/04/30 10:39:24;;;;;;;;;;;20.60;56.10;;;;;;5034570;28;19936;-79
2021/04/30 10:41:49;;;;;;;;;;;20.60;56.10;;;;;;5028586;28;19920;-78
2021/04/30 10:44:15;;;;;;;;;;;20.50;56.10;;;;;;5017967;28;20004;-79
2021/04/30 10:46:41;;;;;;;;;;;20.60;56.10;;;;;;5030220;28;19913;-78
2021/04/30 10:49:07;;;;;;;;;;;20.60;56.00;;;;;;5016632;28;20008;-79
2021/04/30 10:51:33;;;;;;;;;;;20.60;56.00;;;;;;5029836;28;19961;-79
2021/04/30 10:54:27;;;;;;;;;;;20.60;56.00;;;;;;5017510;28;19916;-78
2021/04/30 10:56:56;;;;;;;;;;;20.60;56.00;;;;;;5005478;28;19925;-79
2021/04/30 10:59:40;;;;;;;;;;;20.60;56.10;;;;;;5035817;28;19935;-78
2021/04/30 11:02:26;;;;;;;;;;;20.60;56.10;;;;;;5011073;28;19921;-78
2021/04/30 11:05:11;;;;;;;;;;;20.60;56.20;;;;;;5022869;28;19961;-78
2021/04/30 11:07:41;;;;;;;;;;;20.50;56.10;;;;;;5041716;28;20020;-78
2021/04/30 11:10:31;;;;;;;;;;;20.50;56.10;;;;;;5032896;28;19924;-79
2021/04/30 11:13:16;;;;;;;;;;;20.50;56.00;;;;;;5040456;28;19987;-79
2021/04/30 11:15:45;;;;;;;;;;;20.60;56.10;;;;;;5030465;28;20003;-78
2021/04/30 11:18:12;;;;;;;;;;;20.60;56.10;;;;;;5032748;28;19966;-78
2021/04/30 11:20:40;;;;;;;;;;;20.60;56.10;;;;;;5021125;28;19948;-80
2021/04/30 11:23:14;;;;;;;;;;;20.60;56.10;;;;;;5026720;28;20289;-81
2021/04/30 11:25:59;;;;;;;;;;;20.60;56.00;;;;;;5031084;28;20333;-79
2021/04/30 11:28:24;;;;;;;;;;;20.60;56.10;;;;;;5027447;28;19913;-79
2021/04/30 11:31:00;;;;;;;;;;;20.60;56.10;;;;;;5046450;28;19959;-79
2021/04/30 11:33:28;;;;;;;;;;;20.60;56.10;;;;;;5032665;28;19917;-79
2021/04/30 11:35:54;;;;;;;;;;;20.50;56.10;;;;;;5031904;28;20378;-79
2021/04/30 11:38:33;;;;;;;;;;;20.60;56.10;;;;;;5031589;28;19968;-78
2021/04/30 11:40:59;;;;;;;;;;;20.60;56.10;;;;;;5045346;28;19921;-79
2021/04/30 11:43:24;;;;;;;;;;;20.60;56.10;;;;;;5044488;28;20393;-81
2021/04/30 11:45:51;;;;;;;;;;;20.50;56.10;;;;;;5034500;28;19912;-76
2021/04/30 11:48:21;;;;;;;;;;;20.60;56.20;;;;;;5031971;28;20435;-76
2021/04/30 11:50:57;;;;;;;;;;;20.50;56.20;;;;;;5032465;28;20436;-76
2021/04/30 11:53:23;;;;;;;;;;;20.50;56.20;;;;;;5043581;28;19923;-76
2021/04/30 11:55:50;;;;;;;;;;;20.50;56.20;;;;;;5030779;28;19925;-75
2021/04/30 11:58:16;;;;;;;;;;;20.50;56.20;;;;;;5032296;28;19975;-76
2021/04/30 12:00:43;;;;;;;;;;;20.50;56.20;;;;;;5029988;28;19917;-76
2021/04/30 12:03:09;;;;;;;;;;;20.50;56.20;;;;;;5036502;28;19913;-76
2021/04/30 12:05:35;;;;;;;;;;;20.50;56.20;;;;;;5027755;28;20004;-78
2021/04/30 12:08:02;;;;;;;;;;;20.60;56.10;;;;;;5047665;28;20388;-76
2021/04/30 12:10:29;;;;;;;;;;;20.50;56.10;;;;;;5034788;28;19957;-76
2021/04/30 12:12:55;;;;;;;;;;;20.50;56.10;;;;;;5021838;28;19918;-77
2021/04/30 12:15:41;;;;;;;;;;;20.60;56.10;;;;;;5030376;28;19983;-76
2021/04/30 12:18:07;;;;;;;;;;;20.60;56.10;;;;;;5030900;28;19983;-77
2021/04/30 12:20:37;;;;;;;;;;;20.60;56.10;;;;;;5031728;28;19921;-76
2021/04/30 12:23:03;;;;;;;;;;;20.60;56.10;;;;;;5022817;28;19917;-76
2021/04/30 12:25:32;;;;;;;;;;;20.60;56.20;;;;;;5027399;28;19963;-76
2021/04/30 12:28:13;;;;;;;;;;;20.60;56.10;;;;;;5048070;28;19913;-76
2021/04/30 12:30:38;;;;;;;;;;;20.60;56.10;;;;;;5034278;28;19917;-76
2021/04/30 12:33:04;;;;;;;;;;;20.60;56.10;;;;;;5030787;28;19917;-75
2021/04/30 12:35:29;;;;;;;;;;;20.60;56.10;;;;;;5032212;28;19918;-75
2021/04/30 12:37:55;;;;;;;;;;;20.50;56.10;;;;;;5029169;28;20363;-76
2021/04/30 12:40:30;;;;;;;;;;;20.60;56.10;;;;;;5036166;28;20358;-77
2021/04/30 12:42:57;;;;;;;;;;;20.60;56.10;;;;;;5023891;28;20371;-77
2021/04/30 12:45:23;;;;;;;;;;;20.60;56.10;;;;;;5027799;28;19917;-76
2021/04/30 12:47:50;;;;;;;;;;;20.60;56.00;;;;;;5040587;28;20007;-76
2021/04/30 12:50:22;;;;;;;;;;;20.60;56.10;;;;;;5030129;28;19918;-77
2021/04/30 12:52:50;;;;;;;;;;;20.60;56.00;;;;;;5045106;28;19917;-76
2021/04/30 12:55:26;;;;;;;;;;;20.60;56.10;;;;;;5033251;28;20363;-76
2021/04/30 12:57:58;;;;;;;;;;;20.60;56.00;;;;;;5036706;28;20406;-79
2021/04/30 13:00:25;;;;;;;;;;;20.60;56.00;;;;;;5034192;28;19913;-76
2021/04/30 13:02:50;;;;;;;;;;;20.60;56.00;;;;;;5033377;28;19925;-80
2021/04/30 13:05:16;;;;;;;;;;;20.70;55.90;;;;;;5044700;28;19917;-77
2021/04/30 13:07:42;;;;;;;;;;;20.70;56.00;;;;;;5048379;28;20393;-77
2021/04/30 13:10:07;;;;;;;;;;;20.70;55.90;;;;;;5049174;28;19925;-77
2021/04/30 13:12:34;;;;;;;;;;;20.60;56.00;;;;;;5039518;28;19932;-76
2021/04/30 13:15:00;;;;;;;;;;;20.60;56.00;;;;;;5031443;28;19916;-78
2021/04/30 13:17:30;;;;;;;;;;;20.70;56.00;;;;;;5039463;28;19913;-76
2021/04/30 13:20:14;;;;;;;;;;;20.60;56.00;;;;;;5053960;28;19913;-77
2021/04/30 13:22:39;;;;;;;;;;;20.60;56.00;;;;;;5032122;28;19920;-77
2021/04/30 13:25:05;;;;;;;;;;;20.60;56.00;;;;;;5054868;28;19912;-76
2021/04/30 13:27:50;;;;;;;;;;;20.70;56.00;;;;;;5053536;28;19936;-76
2021/04/30 13:30:16;;;;;;;;;;;20.60;56.00;;;;;;5051888;28;20282;-76
2021/04/30 13:32:42;;;;;;;;;;;20.60;56.00;;;;;;5052968;28;19942;-75
2021/04/30 13:35:07;;;;;;;;;;;20.60;56.00;;;;;;5052823;28;20362;-77
2021/04/30 13:37:40;;;;;;;;;;;20.70;56.00;;;;;;5036384;28;20289;-76
2021/04/30 13:40:08;;;;;;;;;;;20.70;56.00;;;;;;5037120;28;20377;-76
2021/04/30 13:42:33;;;;;;;;;;;20.70;56.00;;;;;;5050648;28;19920;-76
2021/04/30 13:45:00;;;;;;;;;;;20.70;56.00;;;;;;5054655;28;19913;-76
2021/04/30 13:47:38;;;;;;;;;;;20.70;56.00;;;;;;5057901;28;19919;-76
2021/04/30 13:50:05;;;;;;;;;;;20.70;55.90;;;;;;5053312;28;19913;-77
2021/04/30 13:52:31;;;;;;;;;;;20.70;55.90;;;;;;5032177;28;19925;-77
2021/04/30 13:54:56;;;;;;;;;;;20.60;55.90;;;;;;5036242;28;20425;-77
2021/04/30 13:57:25;;;;;;;;;;;20.70;55.90;;;;;;5037259;28;20004;-77
2021/04/30 13:59:50;;;;;;;;;;;20.70;55.90;;;;;;5055100;28;20358;-77
2021/04/30 14:02:17;;;;;;;;;;;20.70;56.00;;;;;;5036854;28;19971;-77
2021/04/30 14:04:43;;;;;;;;;;;20.70;55.90;;;;;;5037176;28;19966;-77
2021/04/30 14:07:09;;;;;;;;;;;20.70;55.90;;;;;;5039597;28;19921;-77
2021/04/30 14:09:34;;;;;;;;;;;20.70;55.90;;;;;;5052907;28;19913;-77
2021/04/30 14:12:00;;;;;;;;;;;20.70;55.90;;;;;;5031595;28;20271;-77
2021/04/30 14:14:26;;;;;;;;;;;20.70;55.90;;;;;;5035098;28;19917;-77
2021/04/30 14:16:51;;;;;;;;;;;20.70;55.90;;;;;;5050237;28;19917;-81